Time;durP1;ratioP1;P1;durP2;ratioP2;P2;SDS_P1;SDS_P2;PMS_P1;PMS_P2;Temp;Humidity;BMP_temperature;BMP_pressure;BME280_temperature;BME280_humidity;BME280_pressure;Samples;Min_cycle;Max_cycle;Signal;HPM_P1;HPM_P2
2021/01/16 00:01:23;;;;;;;;;;;21.90;38.60;;;;;;5035168;28;19913;-84
2021/01/16 00:03:49;;;;;;;;;;;22.00;37.90;;;;;;5034933;28;19941;-84
2021/01/16 00:06:28;;;;;;;;;;;22.00;37.30;;;;;;5031762;28;19917;-84
2021/01/16 00:08:58;;;;;;;;;;;22.00;37.30;;;;;;5033280;28;19935;-88
2021/01/16 00:11:24;;;;;;;;;;;22.10;38.20;;;;;;5044840;28;19969;-82
2021/01/16 00:13:51;;;;;;;;;;;22.30;38.30;;;;;;5033006;28;19913;-88
2021/01/16 00:16:18;;;;;;;;;;;22.30;37.10;;;;;;5030578;28;19913;-87
2021/01/16 00:18:48;;;;;;;;;;;22.40;37.30;;;;;;5056144;28;19909;-88
2021/01/16 00:21:14;;;;;;;;;;;22.40;36.10;;;;;;5054508;27;19920;-82
2021/01/16 00:23:41;;;;;;;;;;;22.40;36.10;;;;;;5042876;28;19944;-85
2021/01/16 00:26:10;;;;;;;;;;;22.30;36.80;;;;;;5030580;28;19951;-88
2021/01/16 00:28:40;;;;;;;;;;;22.50;35.80;;;;;;5031934;28;19909;-84
2021/01/16 00:31:11;;;;;;;;;;;22.50;36.90;;;;;;5030775;28;19909;-81
2021/01/16 00:33:37;;;;;;;;;;;22.70;36.60;;;;;;5030529;28;20001;-87
2021/01/16 00:36:14;;;;;;;;;;;22.60;36.80;;;;;;5030109;28;20046;-85
2021/01/16 00:38:41;;;;;;;;;;;22.70;37.00;;;;;;5034745;28;19960;-85
2021/01/16 00:41:08;;;;;;;;;;;22.80;36.30;;;;;;5063248;28;19911;-86
2021/01/16 00:43:35;;;;;;;;;;;23.10;34.40;;;;;;5052344;27;20012;-88
2021/01/16 00:46:01;;;;;;;;;;;23.10;34.80;;;;;;5047753;27;19921;-86
2021/01/16 00:48:28;;;;;;;;;;;23.30;36.10;;;;;;5078804;27;19911;-82
2021/01/16 00:50:55;;;;;;;;;;;23.50;35.80;;;;;;5037911;28;19925;-83
2021/01/16 00:53:23;;;;;;;;;;;23.80;35.60;;;;;;5031788;28;19996;-82
2021/01/16 00:55:51;;;;;;;;;;;24.10;35.00;;;;;;5033333;28;19917;-81
2021/01/16 00:58:21;;;;;;;;;;;24.30;34.30;;;;;;5034111;28;19913;-84
2021/01/16 01:00:50;;;;;;;;;;;24.80;33.40;;;;;;5038291;27;19909;-82
2021/01/16 01:03:20;;;;;;;;;;;25.10;33.00;;;;;;5061916;27;19914;-79
2021/01/16 01:05:47;;;;;;;;;;;25.10;31.40;;;;;;5038109;28;19920;-82
2021/01/16 01:08:16;;;;;;;;;;;25.40;32.80;;;;;;5052628;28;19916;-81
2021/01/16 01:10:47;;;;;;;;;;;25.50;32.60;;;;;;5052976;28;19959;-79
2021/01/16 01:13:14;;;;;;;;;;;25.90;31.90;;;;;;5037071;28;19920;-81
2021/01/16 01:15:41;;;;;;;;;;;25.70;31.50;;;;;;5032913;27;20027;-80
2021/01/16 01:18:11;;;;;;;;;;;26.10;30.70;;;;;;5034120;28;19917;-80
2021/01/16 01:20:41;;;;;;;;;;;26.30;30.60;;;;;;5023884;28;19913;-78
2021/01/16 01:23:07;;;;;;;;;;;26.00;29.90;;;;;;5037587;28;20000;-82
2021/01/16 01:25:37;;;;;;;;;;;26.00;31.10;;;;;;5034881;28;20008;-82
2021/01/16 01:28:04;;;;;;;;;;;26.30;33.10;;;;;;5069338;27;20262;-81
2021/01/16 01:30:31;;;;;;;;;;;26.70;30.90;;;;;;5114895;27;20242;-80
2021/01/16 01:32:58;;;;;;;;;;;26.40;29.70;;;;;;5031377;28;19909;-81
2021/01/16 01:35:29;;;;;;;;;;;26.60;30.00;;;;;;5037255;27;20371;-81
2021/01/16 01:37:56;;;;;;;;;;;26.30;29.90;;;;;;5032777;28;19913;-80
2021/01/16 01:40:24;;;;;;;;;;;26.20;30.50;;;;;;5031109;28;19913;-81
2021/01/16 01:42:52;;;;;;;;;;;26.20;30.80;;;;;;5046910;28;19963;-83
2021/01/16 01:45:20;;;;;;;;;;;26.50;29.80;;;;;;5030638;28;19917;-82
2021/01/16 01:47:50;;;;;;;;;;;26.40;29.90;;;;;;5031746;28;19913;-85
2021/01/16 01:50:17;;;;;;;;;;;26.20;30.10;;;;;;5032167;28;19909;-81
2021/01/16 01:52:44;;;;;;;;;;;26.40;29.70;;;;;;5031118;28;19921;-82
2021/01/16 01:55:11;;;;;;;;;;;26.30;30.60;;;;;;5031410;28;20462;-81
2021/01/16 01:57:39;;;;;;;;;;;26.90;31.70;;;;;;5030999;28;19913;-81
2021/01/16 02:00:07;;;;;;;;;;;26.80;30.00;;;;;;5031454;28;19953;-83
2021/01/16 02:02:35;;;;;;;;;;;26.50;29.30;;;;;;5032294;28;20411;-83
2021/01/16 02:05:09;;;;;;;;;;;26.10;30.70;;;;;;5035532;27;19929;-84
2021/01/16 02:07:39;;;;;;;;;;;25.60;30.70;;;;;;5032064;28;19943;-82
2021/01/16 02:10:08;;;;;;;;;;;25.40;31.20;;;;;;5031617;28;19932;-84
2021/01/16 02:12:35;;;;;;;;;;;25.50;31.40;;;;;;5032173;28;19949;-80
2021/01/16 02:15:19;;;;;;;;;;;25.50;30.50;;;;;;5031604;28;20343;-80
2021/01/16 02:17:49;;;;;;;;;;;25.30;29.60;;;;;;5031810;28;19987;-81
2021/01/16 02:20:25;;;;;;;;;;;25.40;30.50;;;;;;5050041;27;19909;-85
2021/01/16 02:22:54;;;;;;;;;;;25.30;30.70;;;;;;5042384;28;19921;-82
2021/01/16 02:25:50;;;;;;;;;;;25.30;29.60;;;;;;5037047;27;19910;-83
2021/01/16 02:28:21;;;;;;;;;;;25.30;30.70;;;;;;4981592;28;20014;-81
2021/01/16 02:30:51;;;;;;;;;;;25.40;30.80;;;;;;4981609;28;19910;-82
2021/01/16 02:33:21;;;;;;;;;;;25.50;30.40;;;;;;5019698;28;20351;-82
2021/01/16 02:36:04;;;;;;;;;;;25.50;29.20;;;;;;5033799;27;20299;-82
2021/01/16 02:38:40;;;;;;;;;;;25.50;28.60;;;;;;5030386;28;19962;-83
2021/01/16 02:41:41;;;;;;;;;;;25.30;29.10;;;;;;5030047;28;19921;-82
2021/01/16 02:44:19;;;;;;;;;;;25.20;29.30;;;;;;4988840;28;20004;-81
2021/01/16 02:46:54;;;;;;;;;;;25.00;29.20;;;;;;4988096;28;20371;-81
2021/01/16 02:49:36;;;;;;;;;;;25.10;30.90;;;;;;4978689;28;19909;-81
2021/01/16 02:52:12;;;;;;;;;;;25.30;30.00;;;;;;5003533;28;20007;-79
2021/01/16 02:54:40;;;;;;;;;;;25.30;29.60;;;;;;5033031;28;19917;-79
2021/01/16 02:57:07;;;;;;;;;;;25.20;31.00;;;;;;5034987;28;20272;-81
2021/01/16 02:59:40;;;;;;;;;;;25.30;39.60;;;;;;5033485;28;20368;-82
2021/01/16 03:02:08;;;;;;;;;;;25.10;40.00;;;;;;5038508;27;19917;-83
2021/01/16 03:04:35;;;;;;;;;;;24.80;40.90;;;;;;5033899;28;19921;-84
2021/01/16 03:07:03;;;;;;;;;;;24.50;41.80;;;;;;5031863;28;19917;-83
2021/01/16 03:09:31;;;;;;;;;;;24.50;42.30;;;;;;5031564;28;20377;-84
2021/01/16 03:11:58;;;;;;;;;;;24.60;41.70;;;;;;5089233;27;19915;-80
2021/01/16 03:14:27;;;;;;;;;;;24.60;42.00;;;;;;5103327;27;19950;-82
2021/01/16 03:17:08;;;;;;;;;;;24.40;41.00;;;;;;5091477;27;19964;-84
2021/01/16 03:19:38;;;;;;;;;;;24.50;41.30;;;;;;5074581;27;19916;-84
2021/01/16 03:22:24;;;;;;;;;;;24.50;41.50;;;;;;5104521;27;20263;-82
2021/01/16 03:24:51;;;;;;;;;;;24.30;41.70;;;;;;5031546;28;19966;-79
2021/01/16 03:27:18;;;;;;;;;;;24.30;41.60;;;;;;5033109;28;19916;-81
2021/01/16 03:29:45;;;;;;;;;;;24.20;43.20;;;;;;5036801;27;20398;-82
2021/01/16 03:32:18;;;;;;;;;;;24.20;41.80;;;;;;5045371;28;19913;-83
2021/01/16 03:34:46;;;;;;;;;;;24.00;43.30;;;;;;5062018;27;20529;-82
2021/01/16 03:37:13;;;;;;;;;;;24.00;42.20;;;;;;5031875;28;19937;-82
2021/01/16 03:39:43;;;;;;;;;;;24.00;42.20;;;;;;5029796;28;19913;-82
2021/01/16 03:42:30;;;;;;;;;;;23.90;44.10;;;;;;5030871;28;19916;-81
2021/01/16 03:44:57;;;;;;;;;;;24.00;42.50;;;;;;5030417;28;19913;-81
2021/01/16 03:47:23;;;;;;;;;;;24.00;43.70;;;;;;5036429;28;19909;-83
2021/01/16 03:49:50;;;;;;;;;;;24.00;43.70;;;;;;5053304;27;19912;-80
2021/01/16 03:52:26;;;;;;;;;;;24.10;43.20;;;;;;5069976;27;19970;-86
2021/01/16 03:54:53;;;;;;;;;;;24.10;43.30;;;;;;5041571;27;19947;-84
2021/01/16 03:57:24;;;;;;;;;;;24.10;42.90;;;;;;5037814;28;19974;-81
2021/01/16 03:59:51;;;;;;;;;;;24.10;44.10;;;;;;5052828;28;19983;-84
2021/01/16 04:02:18;;;;;;;;;;;24.10;43.70;;;;;;5031392;28;19913;-86
2021/01/16 04:04:45;;;;;;;;;;;24.20;43.50;;;;;;5031768;28;20000;-83
2021/01/16 04:07:12;;;;;;;;;;;24.30;41.60;;;;;;5039989;28;19933;-79
2021/01/16 04:09:47;;;;;;;;;;;24.20;40.80;;;;;;5031399;28;20523;-83
2021/01/16 04:12:14;;;;;;;;;;;24.00;40.80;;;;;;5053847;28;19949;-80
2021/01/16 04:14:41;;;;;;;;;;;23.90;41.80;;;;;;5029711;28;20003;-83
2021/01/16 04:17:08;;;;;;;;;;;23.80;43.70;;;;;;5031283;28;20346;-84
2021/01/16 04:19:35;;;;;;;;;;;23.80;43.70;;;;;;5030782;28;19958;-83
2021/01/16 04:22:02;;;;;;;;;;;24.00;42.80;;;;;;5031456;28;19916;-83
2021/01/16 04:24:28;;;;;;;;;;;23.80;43.00;;;;;;5032438;28;20012;-83
2021/01/16 04:26:55;;;;;;;;;;;23.90;42.60;;;;;;5054037;28;19992;-83
2021/01/16 04:29:22;;;;;;;;;;;23.90;43.90;;;;;;5040189;28;20371;-82
2021/01/16 04:31:49;;;;;;;;;;;24.00;43.50;;;;;;5032813;28;19945;-83
2021/01/16 04:34:16;;;;;;;;;;;24.00;43.50;;;;;;5033209;28;19960;-83
2021/01/16 04:36:43;;;;;;;;;;;23.90;43.10;;;;;;5033958;28;19916;-85
2021/01/16 04:39:10;;;;;;;;;;;24.00;42.90;;;;;;5032758;28;19965;-80
2021/01/16 04:41:38;;;;;;;;;;;24.00;42.80;;;;;;5032466;28;20019;-83
2021/01/16 04:44:05;;;;;;;;;;;24.00;44.10;;;;;;5032138;28;19917;-82
2021/01/16 04:46:32;;;;;;;;;;;23.90;43.70;;;;;;5032686;28;19913;-81
2021/01/16 04:49:01;;;;;;;;;;;23.90;43.70;;;;;;5033763;28;20016;-84
2021/01/16 04:51:32;;;;;;;;;;;23.90;44.60;;;;;;5033484;28;19925;-84
2021/01/16 04:54:00;;;;;;;;;;;24.00;45.90;;;;;;5033212;28;20431;-83
2021/01/16 04:56:28;;;;;;;;;;;23.90;45.20;;;;;;5032964;28;19924;-86
2021/01/16 04:58:55;;;;;;;;;;;23.80;45.20;;;;;;5033458;28;19962;-88
2021/01/16 05:01:22;;;;;;;;;;;23.80;45.00;;;;;;5035318;28;19909;-86
2021/01/16 05:03:51;;;;;;;;;;;23.80;45.90;;;;;;5029195;28;20030;-81
2021/01/16 05:06:19;;;;;;;;;;;23.70;45.90;;;;;;5032508;28;19920;-84
2021/01/16 05:08:46;;;;;;;;;;;23.60;46.30;;;;;;5033516;28;19909;-80
2021/01/16 05:11:42;;;;;;;;;;;23.60;47.20;;;;;;5050548;28;19928;-88
2021/01/16 05:14:16;;;;;;;;;;;23.60;46.40;;;;;;5009807;28;19925;-87
2021/01/16 05:16:56;;;;;;;;;;;23.60;47.20;;;;;;5041513;27;19909;-89
2021/01/16 05:19:27;;;;;;;;;;;23.40;47.40;;;;;;5030874;27;19935;-80
2021/01/16 05:21:54;;;;;;;;;;;23.40;48.30;;;;;;5030876;28;20418;-86
2021/01/16 05:24:22;;;;;;;;;;;23.40;46.70;;;;;;5033737;28;20000;-83
2021/01/16 05:26:59;;;;;;;;;;;23.30;47.70;;;;;;5033819;28;19916;-86
2021/01/16 05:29:26;;;;;;;;;;;23.30;48.60;;;;;;5034110;28;20039;-87
2021/01/16 05:31:54;;;;;;;;;;;23.30;47.50;;;;;;5032119;28;20022;-85
2021/01/16 05:34:24;;;;;;;;;;;23.40;47.40;;;;;;5032998;28;19961;-82
2021/01/16 05:36:51;;;;;;;;;;;23.30;47.00;;;;;;5033423;28;19966;-83
2021/01/16 05:39:19;;;;;;;;;;;23.20;47.50;;;;;;5035012;28;20003;-84
2021/01/16 05:41:51;;;;;;;;;;;23.10;48.70;;;;;;5036163;28;19921;-85
2021/01/16 05:44:17;;;;;;;;;;;23.20;48.00;;;;;;5049494;27;19935;-81
2021/01/16 05:46:45;;;;;;;;;;;23.20;48.40;;;;;;5106864;27;19922;-84
2021/01/16 05:49:19;;;;;;;;;;;23.20;47.40;;;;;;5070945;27;19922;-81
2021/01/16 05:51:46;;;;;;;;;;;23.10;48.80;;;;;;5071944;27;19916;-84
2021/01/16 05:54:13;;;;;;;;;;;23.00;48.50;;;;;;5055543;27;20028;-82
2021/01/16 05:56:40;;;;;;;;;;;23.10;47.70;;;;;;5051867;27;19921;-81
2021/01/16 05:59:10;;;;;;;;;;;23.10;47.50;;;;;;5054583;28;19904;-84
2021/01/16 06:01:37;;;;;;;;;;;23.00;48.50;;;;;;5065979;27;19988;-84
2021/01/16 06:04:04;;;;;;;;;;;23.00;47.50;;;;;;5047207;28;19920;-84
2021/01/16 06:06:35;;;;;;;;;;;23.10;48.60;;;;;;5041134;28;19959;-87
2021/01/16 06:09:02;;;;;;;;;;;23.00;47.20;;;;;;5027654;28;19967;-85
2021/01/16 06:11:38;;;;;;;;;;;23.10;47.10;;;;;;5036758;28;20486;-85
2021/01/16 06:14:06;;;;;;;;;;;23.10;48.20;;;;;;5037423;28;19909;-83
2021/01/16 06:16:46;;;;;;;;;;;23.00;48.70;;;;;;5036992;28;20016;-87
2021/01/16 06:19:17;;;;;;;;;;;22.90;49.00;;;;;;5037352;28;19909;-84
2021/01/16 06:21:43;;;;;;;;;;;22.90;50.30;;;;;;5064886;28;19913;-86
2021/01/16 06:24:13;;;;;;;;;;;22.90;49.20;;;;;;5038074;28;19954;-85
2021/01/16 06:26:41;;;;;;;;;;;22.90;48.90;;;;;;5040522;28;19924;-86
2021/01/16 06:29:14;;;;;;;;;;;22.90;50.50;;;;;;5040702;28;19917;-87
2021/01/16 06:31:52;;;;;;;;;;;23.00;50.80;;;;;;5038389;28;19913;-82
2021/01/16 06:34:30;;;;;;;;;;;23.00;51.20;;;;;;5052017;28;19966;-86
2021/01/16 06:37:13;;;;;;;;;;;23.00;50.00;;;;;;5039163;28;19924;-86
2021/01/16 06:39:47;;;;;;;;;;;23.00;50.60;;;;;;5054131;28;19913;-84
2021/01/16 06:42:20;;;;;;;;;;;22.90;50.40;;;;;;5050226;28;19916;-85
2021/01/16 06:44:49;;;;;;;;;;;22.90;51.10;;;;;;5032891;28;19920;-83
2021/01/16 06:47:16;;;;;;;;;;;23.00;51.40;;;;;;5037517;28;20038;-86
2021/01/16 06:49:45;;;;;;;;;;;23.00;51.10;;;;;;5047104;28;19917;-84
2021/01/16 06:52:17;;;;;;;;;;;22.90;51.80;;;;;;5055146;28;19913;-87
2021/01/16 06:54:48;;;;;;;;;;;22.80;52.10;;;;;;5038164;28;19925;-82
2021/01/16 06:57:15;;;;;;;;;;;22.80;52.70;;;;;;5030750;28;20275;-87
2021/01/16 06:59:46;;;;;;;;;;;22.80;53.40;;;;;;5030637;28;19920;-84
2021/01/16 07:02:22;;;;;;;;;;;22.80;52.50;;;;;;5052151;28;19960;-85
2021/01/16 07:04:56;;;;;;;;;;;22.80;51.80;;;;;;5025667;28;20528;-83
2021/01/16 07:07:30;;;;;;;;;;;22.80;51.70;;;;;;5029950;28;19970;-87
2021/01/16 07:10:01;;;;;;;;;;;22.80;52.40;;;;;;5016587;28;19913;-89
2021/01/16 07:12:28;;;;;;;;;;;22.80;51.40;;;;;;5043101;28;19914;-83
2021/01/16 07:14:54;;;;;;;;;;;22.70;51.60;;;;;;5026683;28;19968;-80
2021/01/16 07:17:23;;;;;;;;;;;22.60;52.40;;;;;;5030289;28;19961;-85
2021/01/16 07:19:55;;;;;;;;;;;22.50;52.90;;;;;;5082134;28;19920;-81
2021/01/16 07:22:38;;;;;;;;;;;22.50;52.70;;;;;;5066271;28;19913;-83
2021/01/16 07:25:08;;;;;;;;;;;22.50;53.70;;;;;;5027998;28;19944;-84
2021/01/16 07:27:40;;;;;;;;;;;22.40;53.70;;;;;;5029216;28;19913;-84
2021/01/16 07:30:14;;;;;;;;;;;22.50;52.40;;;;;;5026286;28;19917;-84
2021/01/16 07:32:43;;;;;;;;;;;22.50;52.20;;;;;;5043488;27;19995;-88
2021/01/16 07:35:14;;;;;;;;;;;22.40;52.80;;;;;;5053886;27;19947;-88
2021/01/16 07:37:48;;;;;;;;;;;22.40;52.90;;;;;;5010506;28;19957;-86
2021/01/16 07:40:18;;;;;;;;;;;22.40;54.10;;;;;;5008965;28;20021;-81
2021/01/16 07:42:56;;;;;;;;;;;22.40;54.90;;;;;;5011285;28;20351;-83
2021/01/16 07:45:29;;;;;;;;;;;22.40;55.00;;;;;;5030082;28;19921;-85
2021/01/16 07:48:02;;;;;;;;;;;22.30;54.90;;;;;;5029686;28;19917;-85
2021/01/16 07:50:34;;;;;;;;;;;22.30;55.90;;;;;;5027344;28;19917;-85
2021/01/16 07:53:20;;;;;;;;;;;22.30;56.10;;;;;;5030290;28;20000;-84
2021/01/16 07:56:00;;;;;;;;;;;22.20;55.70;;;;;;5030782;28;19924;-87
2021/01/16 07:58:36;;;;;;;;;;;22.20;56.20;;;;;;5030178;28;19920;-87
2021/01/16 08:01:03;;;;;;;;;;;22.20;56.50;;;;;;5031952;28;20008;-93
2021/01/16 08:03:48;;;;;;;;;;;22.20;57.50;;;;;;5035166;28;19913;-91
2021/01/16 08:06:35;;;;;;;;;;;22.20;57.40;;;;;;5015514;28;19922;-92
2021/01/16 08:09:05;;;;;;;;;;;22.10;57.20;;;;;;5015116;28;19955;-88
2021/01/16 08:11:37;;;;;;;;;;;22.10;56.80;;;;;;5015990;28;19910;-91
2021/01/16 08:14:08;;;;;;;;;;;22.00;57.20;;;;;;5017840;28;19973;-87
2021/01/16 08:16:35;;;;;;;;;;;21.90;56.10;;;;;;5017453;28;19916;-93
2021/01/16 08:19:24;;;;;;;;;;;21.90;56.30;;;;;;5019353;28;20339;-88
2021/01/16 08:21:58;;;;;;;;;;;21.80;56.60;;;;;;5037657;28;19909;-88
2021/01/16 08:24:30;;;;;;;;;;;21.80;56.70;;;;;;5036503;28;19909;-95
2021/01/16 08:27:03;;;;;;;;;;;21.80;57.70;;;;;;5035257;28;20007;-89
2021/01/16 08:29:39;;;;;;;;;;;21.80;58.20;;;;;;5034383;28;19913;-89
2021/01/16 08:32:09;;;;;;;;;;;21.90;58.80;;;;;;5034649;28;19932;-92
2021/01/16 08:34:48;;;;;;;;;;;21.80;58.80;;;;;;5033945;28;19917;-90
2021/01/16 08:37:31;;;;;;;;;;;21.70;58.90;;;;;;5035052;28;20035;-93
2021/01/16 08:39:58;;;;;;;;;;;21.70;58.00;;;;;;5049716;27;20351;-91
2021/01/16 08:42:26;;;;;;;;;;;21.70;58.50;;;;;;5015998;28;19910;-85
2021/01/16 08:44:54;;;;;;;;;;;21.70;57.70;;;;;;5020656;28;19932;-93
2021/01/16 08:47:21;;;;;;;;;;;21.70;57.90;;;;;;5053694;28;19909;-87
2021/01/16 08:49:53;;;;;;;;;;;21.70;58.00;;;;;;5016754;28;19909;-93
2021/01/16 08:52:31;;;;;;;;;;;21.70;58.30;;;;;;5017299;28;20363;-86
2021/01/16 08:55:02;;;;;;;;;;;21.60;59.70;;;;;;5030563;28;19948;-89
2021/01/16 08:57:30;;;;;;;;;;;21.60;59.70;;;;;;5031381;28;19938;-89
2021/01/16 09:00:13;;;;;;;;;;;21.60;60.40;;;;;;5032756;28;19936;-81
2021/01/16 09:02:39;;;;;;;;;;;21.50;59.50;;;;;;5035285;28;20439;-83
2021/01/16 09:05:27;;;;;;;;;;;21.50;59.60;;;;;;5035741;27;19921;-88
2021/01/16 09:07:53;;;;;;;;;;;21.50;59.50;;;;;;5042777;28;19909;-83
2021/01/16 09:10:23;;;;;;;;;;;21.40;60.10;;;;;;5040432;28;19936;-87
2021/01/16 09:12:50;;;;;;;;;;;21.40;59.70;;;;;;5039028;28;19920;-86
2021/01/16 09:15:24;;;;;;;;;;;21.40;60.30;;;;;;5039267;28;20378;-85
2021/01/16 09:18:04;;;;;;;;;;;21.40;60.60;;;;;;5039349;28;19913;-87
2021/01/16 09:20:35;;;;;;;;;;;21.40;60.30;;;;;;5039612;28;20386;-86
2021/01/16 09:23:20;;;;;;;;;;;21.40;60.50;;;;;;5038933;28;19937;-91
2021/01/16 09:25:48;;;;;;;;;;;21.40;60.50;;;;;;5036457;28;19956;-90
2021/01/16 09:28:14;;;;;;;;;;;21.40;61.30;;;;;;5034836;28;19909;-87
2021/01/16 09:30:41;;;;;;;;;;;21.40;61.70;;;;;;5037617;27;19915;-82
2021/01/16 09:33:22;;;;;;;;;;;21.40;61.40;;;;;;5038543;27;19962;-87
2021/01/16 09:35:49;;;;;;;;;;;21.40;62.20;;;;;;5040526;27;20364;-85
2021/01/16 09:38:16;;;;;;;;;;;21.30;62.40;;;;;;5035640;27;19909;-91
2021/01/16 09:40:45;;;;;;;;;;;21.30;63.00;;;;;;5033106;28;19925;-85
2021/01/16 09:43:17;;;;;;;;;;;21.30;63.40;;;;;;5037474;27;20121;-85
2021/01/16 09:45:57;;;;;;;;;;;21.30;63.70;;;;;;5035293;28;20012;-83
2021/01/16 09:48:32;;;;;;;;;;;21.20;63.80;;;;;;5035546;27;19949;-83
2021/01/16 09:51:01;;;;;;;;;;;21.20;63.70;;;;;;5036638;28;19920;-87
2021/01/16 09:53:28;;;;;;;;;;;21.20;64.00;;;;;;5042846;28;20291;-79
2021/01/16 09:55:55;;;;;;;;;;;21.10;63.80;;;;;;5048871;28;19921;-82
2021/01/16 09:58:29;;;;;;;;;;;21.10;63.60;;;;;;5031330;28;19921;-82
2021/01/16 10:01:13;;;;;;;;;;;21.10;64.10;;;;;;5029547;28;19995;-85
2021/01/16 10:03:46;;;;;;;;;;;21.10;64.50;;;;;;5029537;28;19960;-85
2021/01/16 10:06:17;;;;;;;;;;;21.10;63.70;;;;;;5027590;28;19921;-84
2021/01/16 10:08:44;;;;;;;;;;;21.10;63.70;;;;;;5028030;28;20375;-82
2021/01/16 10:11:12;;;;;;;;;;;21.10;64.00;;;;;;5026972;28;19935;-83
2021/01/16 10:13:39;;;;;;;;;;;21.10;63.20;;;;;;5028737;28;20007;-83
2021/01/16 10:16:07;;;;;;;;;;;21.10;63.70;;;;;;5026009;28;19925;-81
2021/01/16 10:18:35;;;;;;;;;;;21.00;62.60;;;;;;5028921;28;19960;-83
2021/01/16 10:21:01;;;;;;;;;;;21.00;63.00;;;;;;5028669;28;19963;-83
2021/01/16 10:23:29;;;;;;;;;;;21.00;63.90;;;;;;5028277;28;19965;-88
2021/01/16 10:26:06;;;;;;;;;;;21.00;63.10;;;;;;5028913;28;19934;-86
2021/01/16 10:28:34;;;;;;;;;;;21.00;63.50;;;;;;5028602;28;19920;-89
2021/01/16 10:31:02;;;;;;;;;;;21.00;63.40;;;;;;5029712;28;20293;-83
2021/01/16 10:33:35;;;;;;;;;;;21.00;62.80;;;;;;5060173;28;20130;-85
2021/01/16 10:36:06;;;;;;;;;;;21.00;63.60;;;;;;5031740;28;19965;-83
2021/01/16 10:38:51;;;;;;;;;;;21.00;63.20;;;;;;5060760;27;20323;-89
2021/01/16 10:41:32;;;;;;;;;;;21.00;62.60;;;;;;5029687;28;19913;-84
2021/01/16 10:44:03;;;;;;;;;;;21.00;62.90;;;;;;5058925;27;19927;-85
2021/01/16 10:46:37;;;;;;;;;;;21.00;63.30;;;;;;5027172;28;19969;-82
2021/01/16 10:49:22;;;;;;;;;;;21.00;63.20;;;;;;5027933;28;20008;-86
2021/01/16 10:51:51;;;;;;;;;;;20.90;63.40;;;;;;5029233;28;19917;-83
2021/01/16 10:54:21;;;;;;;;;;;20.90;64.10;;;;;;5026285;28;19913;-81
2021/01/16 10:57:07;;;;;;;;;;;20.90;64.50;;;;;;5029215;28;19913;-82
2021/01/16 10:59:34;;;;;;;;;;;20.90;64.70;;;;;;5028604;28;20375;-83
2021/01/16 11:02:11;;;;;;;;;;;20.80;65.00;;;;;;5058736;27;19924;-82
2021/01/16 11:04:59;;;;;;;;;;;20.80;64.70;;;;;;5022391;28;19975;-83
2021/01/16 11:07:33;;;;;;;;;;;20.80;64.80;;;;;;5026530;28;19961;-86
2021/01/16 11:10:03;;;;;;;;;;;20.80;64.90;;;;;;5027704;28;20315;-83
2021/01/16 11:12:30;;;;;;;;;;;20.80;65.00;;;;;;5028526;28;19974;-83
2021/01/16 11:15:02;;;;;;;;;;;20.70;65.30;;;;;;5025616;28;20425;-83
2021/01/16 11:17:47;;;;;;;;;;;20.80;65.40;;;;;;5028477;28;19921;-83
2021/01/16 11:20:21;;;;;;;;;;;20.80;66.00;;;;;;5028384;28;19909;-83
2021/01/16 11:22:58;;;;;;;;;;;20.80;65.70;;;;;;5026247;28;19913;-85
2021/01/16 11:25:40;;;;;;;;;;;20.70;65.80;;;;;;5027816;28;19919;-83
2021/01/16 11:28:08;;;;;;;;;;;20.70;66.10;;;;;;5026913;28;19909;-82
2021/01/16 11:30:38;;;;;;;;;;;20.70;66.80;;;;;;5024790;28;19924;-81
2021/01/16 11:33:25;;;;;;;;;;;20.60;66.40;;;;;;5027942;28;19952;-80
2021/01/16 11:36:10;;;;;;;;;;;20.60;66.50;;;;;;5022783;28;19945;-82
2021/01/16 11:38:50;;;;;;;;;;;20.60;66.80;;;;;;5020735;28;19923;-79
2021/01/16 11:41:46;;;;;;;;;;;20.60;66.90;;;;;;5027276;28;19961;-81
2021/01/16 11:44:12;;;;;;;;;;;20.60;67.30;;;;;;5013171;28;20016;-81
2021/01/16 11:46:39;;;;;;;;;;;20.60;68.00;;;;;;5027736;28;19944;-83
2021/01/16 11:49:06;;;;;;;;;;;20.50;68.50;;;;;;5027948;28;19968;-82
2021/01/16 11:51:32;;;;;;;;;;;20.50;68.70;;;;;;5027852;28;19935;-88
2021/01/16 11:54:02;;;;;;;;;;;20.50;68.90;;;;;;5027654;28;19919;-85
2021/01/16 11:56:29;;;;;;;;;;;20.40;68.60;;;;;;5026931;28;19950;-82
2021/01/16 11:58:56;;;;;;;;;;;20.40;68.70;;;;;;5027051;28;19909;-82
2021/01/16 12:01:28;;;;;;;;;;;20.40;69.10;;;;;;5025996;28;19924;-79
2021/01/16 12:04:02;;;;;;;;;;;20.40;69.50;;;;;;5025116;28;19925;-86
2021/01/16 12:06:32;;;;;;;;;;;20.40;69.80;;;;;;5026111;28;21586;-83
2021/01/16 12:08:59;;;;;;;;;;;20.40;70.90;;;;;;5025814;28;20268;-81
2021/01/16 12:11:26;;;;;;;;;;;20.40;70.70;;;;;;5026390;28;19940;-83
2021/01/16 12:13:52;;;;;;;;;;;20.40;70.10;;;;;;5026712;28;19966;-81
2021/01/16 12:16:19;;;;;;;;;;;20.50;70.30;;;;;;5059046;28;19966;-83
2021/01/16 12:18:46;;;;;;;;;;;20.50;71.10;;;;;;5027370;28;19913;-87
2021/01/16 12:21:13;;;;;;;;;;;20.50;70.60;;;;;;5052897;28;19917;-80
2021/01/16 12:23:44;;;;;;;;;;;20.50;70.10;;;;;;5026613;28;19981;-82
2021/01/16 12:26:12;;;;;;;;;;;20.50;70.30;;;;;;5022853;28;20011;-86
2021/01/16 12:28:42;;;;;;;;;;;20.50;70.60;;;;;;5027116;28;19920;-85
2021/01/16 12:31:17;;;;;;;;;;;20.40;70.80;;;;;;5026328;28;20016;-84
2021/01/16 12:33:44;;;;;;;;;;;20.40;71.80;;;;;;5025079;28;19995;-86
2021/01/16 12:36:10;;;;;;;;;;;20.30;72.80;;;;;;5026548;28;20543;-81
2021/01/16 12:38:37;;;;;;;;;;;20.30;72.30;;;;;;5027054;28;20004;-84
2021/01/16 12:41:04;;;;;;;;;;;20.20;72.70;;;;;;5026977;28;19940;-83
2021/01/16 12:43:30;;;;;;;;;;;20.20;73.20;;;;;;5023323;28;20344;-83
2021/01/16 12:46:04;;;;;;;;;;;20.20;73.00;;;;;;5026622;28;19940;-83
2021/01/16 12:48:31;;;;;;;;;;;20.30;73.30;;;;;;5027970;28;19928;-83
2021/01/16 12:50:58;;;;;;;;;;;20.30;73.30;;;;;;5030471;28;19913;-84
2021/01/16 12:53:25;;;;;;;;;;;20.30;73.50;;;;;;5030784;28;19948;-85
2021/01/16 12:55:51;;;;;;;;;;;20.30;73.60;;;;;;5030925;28;19990;-85
2021/01/16 12:58:18;;;;;;;;;;;20.20;73.50;;;;;;5030927;28;19921;-83
2021/01/16 13:00:45;;;;;;;;;;;20.20;74.20;;;;;;5034271;28;19917;-80
2021/01/16 13:03:12;;;;;;;;;;;20.10;74.70;;;;;;5039151;28;19913;-84
2021/01/16 13:05:39;;;;;;;;;;;20.10;74.80;;;;;;5040356;28;20387;-86
2021/01/16 13:08:07;;;;;;;;;;;20.00;74.90;;;;;;5040120;28;20336;-83
2021/01/16 13:10:35;;;;;;;;;;;20.10;75.70;;;;;;5036193;28;20011;-84
2021/01/16 13:13:15;;;;;;;;;;;20.00;75.40;;;;;;5038771;28;19909;-85
2021/01/16 13:15:43;;;;;;;;;;;20.00;76.80;;;;;;5031305;28;19968;-84
2021/01/16 13:18:12;;;;;;;;;;;20.10;76.30;;;;;;5046696;28;20351;-86
2021/01/16 13:20:52;;;;;;;;;;;19.90;76.10;;;;;;5030136;28;19913;-83
2021/01/16 13:23:35;;;;;;;;;;;19.90;76.20;;;;;;5030287;28;19921;-85
2021/01/16 13:26:01;;;;;;;;;;;19.90;75.70;;;;;;5027455;28;20335;-83
2021/01/16 13:28:29;;;;;;;;;;;20.10;76.00;;;;;;5030581;28;19917;-80
2021/01/16 13:30:58;;;;;;;;;;;20.10;76.10;;;;;;5029427;28;19913;-85
2021/01/16 13:33:25;;;;;;;;;;;20.10;76.30;;;;;;5030527;28;19917;-86
2021/01/16 13:35:52;;;;;;;;;;;20.10;76.80;;;;;;5030372;28;20379;-85
2021/01/16 13:38:23;;;;;;;;;;;20.10;76.90;;;;;;5031143;28;20035;-82
2021/01/16 13:40:59;;;;;;;;;;;20.10;77.40;;;;;;5030577;28;20371;-83
2021/01/16 13:43:27;;;;;;;;;;;20.10;76.80;;;;;;5028254;28;19914;-85
2021/01/16 13:45:57;;;;;;;;;;;20.00;76.60;;;;;;5030800;28;19961;-86
2021/01/16 13:48:35;;;;;;;;;;;20.00;77.40;;;;;;5019659;28;19953;-86
2021/01/16 13:51:17;;;;;;;;;;;20.00;76.70;;;;;;5032218;28;19924;-85
2021/01/16 13:53:54;;;;;;;;;;;20.00;76.80;;;;;;5030072;28;20382;-83
2021/01/16 13:56:21;;;;;;;;;;;20.00;77.20;;;;;;5029152;28;19929;-85
2021/01/16 13:58:48;;;;;;;;;;;20.00;78.20;;;;;;5030550;28;19916;-87
2021/01/16 14:01:30;;;;;;;;;;;20.00;78.10;;;;;;5030234;28;19909;-83
2021/01/16 14:04:01;;;;;;;;;;;20.00;78.50;;;;;;5047390;27;20240;-82
2021/01/16 14:06:27;;;;;;;;;;;20.10;77.40;;;;;;5052123;27;19968;-88
2021/01/16 14:08:56;;;;;;;;;;;20.10;77.00;;;;;;5074339;27;20379;-83
2021/01/16 14:11:22;;;;;;;;;;;20.10;76.80;;;;;;5089082;27;19916;-86
2021/01/16 14:13:49;;;;;;;;;;;20.10;77.50;;;;;;5030356;28;19932;-85
2021/01/16 14:16:19;;;;;;;;;;;20.10;78.00;;;;;;5030137;28;19917;-85
2021/01/16 14:18:49;;;;;;;;;;;20.00;78.00;;;;;;5030189;28;19909;-87
2021/01/16 14:21:17;;;;;;;;;;;19.90;78.40;;;;;;5030409;28;19979;-88
2021/01/16 14:23:44;;;;;;;;;;;19.80;78.80;;;;;;5030231;28;20367;-86
2021/01/16 14:26:16;;;;;;;;;;;19.70;78.70;;;;;;5030704;28;19920;-86
2021/01/16 14:28:44;;;;;;;;;;;19.70;78.80;;;;;;5030465;28;19909;-86
2021/01/16 14:31:12;;;;;;;;;;;19.70;79.10;;;;;;5030240;28;20279;-85
2021/01/16 14:33:39;;;;;;;;;;;19.70;78.90;;;;;;5030400;28;19913;-85
2021/01/16 14:36:17;;;;;;;;;;;19.70;78.90;;;;;;5030040;28;20024;-88
2021/01/16 14:38:44;;;;;;;;;;;19.70;78.70;;;;;;5033187;27;20355;-88